createdAt,value
2023-03-05T00:00:18.548Z,77.36719
2023-03-05T00:00:48.551Z,77.40234
2023-03-05T00:01:18.557Z,77.44531
2023-03-05T00:01:48.549Z,77.46289
2023-03-05T00:02:18.633Z,77.67969
2023-03-05T00:02:48.666Z,77.55566
2023-03-05T00:03:18.570Z,77.2959
2023-03-05T00:03:48.620Z,77.71094
2023-03-05T00:04:18.544Z,77.40039
2023-03-05T00:04:48.552Z,77.30469
2023-03-05T00:05:18.546Z,77.67773
2023-03-05T00:05:48.561Z,77.99219
2023-03-05T00:06:18.547Z,78.11133
2023-03-05T00:06:48.543Z,77.74805
2023-03-05T00:07:18.552Z,77.68652
2023-03-05T00:07:48.542Z,77.57324
2023-03-05T00:08:18.546Z,77.47754
2023-03-05T00:08:48.549Z,77.16699
2023-03-05T00:09:18.544Z,77.29297
2023-03-05T00:09:48.543Z,77.4668
2023-03-05T00:10:18.556Z,77.67188
2023-03-05T00:10:48.543Z,77.31055
2023-03-05T00:11:18.542Z,77.57422
2023-03-05T00:11:48.549Z,78.25293
2023-03-05T00:12:18.542Z,78.76855
2023-03-05T00:12:48.543Z,79.12305
2023-03-05T00:13:18.546Z,79.47852
2023-03-05T00:13:48.541Z,79.81641
2023-03-05T00:14:18.542Z,79.46973
2023-03-05T00:14:48.543Z,79.14844
2023-03-05T00:15:18.546Z,79.34961
2023-03-05T00:15:48.546Z,79.37891
2023-03-05T00:16:18.574Z,79.03711
2023-03-05T00:16:48.552Z,79.19434
2023-03-05T00:17:18.550Z,78.65039
2023-03-05T00:17:48.550Z,78.36426
2023-03-05T00:18:18.540Z,77.89746
2023-03-05T00:18:48.551Z,77.48828
2023-03-05T00:19:18.561Z,77.7832
2023-03-05T00:19:48.547Z,77.75586
2023-03-05T00:20:18.543Z,77.30566
2023-03-05T00:20:48.543Z,77.46191
2023-03-05T00:21:18.540Z,77.54297
2023-03-05T00:21:48.542Z,77.33496
2023-03-05T00:22:18.548Z,77.41016
2023-03-05T00:22:48.549Z,77.16406
2023-03-05T00:23:18.545Z,77.09766
2023-03-05T00:23:48.546Z,77.29492
2023-03-05T00:24:18.598Z,77.42188
2023-03-05T00:24:48.545Z,77.35059
2023-03-05T00:25:18.539Z,77.45508
2023-03-05T00:25:48.540Z,77.48633
2023-03-05T00:26:18.545Z,77.60059
2023-03-05T00:26:48.546Z,77.70996
2023-03-05T00:27:18.540Z,77.28809
2023-03-05T00:27:48.549Z,77.47656
2023-03-05T00:28:18.546Z,77.51953
2023-03-05T00:28:48.547Z,77.17285
2023-03-05T00:29:18.578Z,77.44629
2023-03-05T00:29:48.551Z,77.46777
2023-03-05T00:30:18.546Z,77.46289
2023-03-05T00:30:48.597Z,77.70117
2023-03-05T00:31:18.588Z,77.70703
2023-03-05T00:31:48.554Z,77.46582
2023-03-05T00:32:18.606Z,77.63574
2023-03-05T00:32:48.547Z,78.01758
2023-03-05T00:33:18.543Z,78.05566
2023-03-05T00:33:48.543Z,77.90039
2023-03-05T00:34:18.555Z,77.73535
2023-03-05T00:34:48.551Z,77.44922
2023-03-05T00:35:18.555Z,77.1875
2023-03-05T00:35:48.629Z,77.23242
2023-03-05T00:36:18.545Z,76.98926
2023-03-05T00:36:48.559Z,76.98242
2023-03-05T00:37:18.553Z,77.22461
2023-03-05T00:37:48.551Z,76.92969
2023-03-05T00:38:18.547Z,77.17285
2023-03-05T00:38:48.547Z,77.7627
2023-03-05T00:39:18.547Z,77.74023
2023-03-05T00:39:48.549Z,77.87207
2023-03-05T00:40:18.672Z,77.73633
2023-03-05T00:40:48.546Z,77.82715
2023-03-05T00:41:18.545Z,77.92188
2023-03-05T00:41:48.546Z,77.7334
2023-03-05T00:42:18.546Z,77.5166
2023-03-05T00:42:48.550Z,78.04199
2023-03-05T00:43:18.547Z,78.45703
2023-03-05T00:43:48.553Z,78.90527
2023-03-05T00:44:18.551Z,79.1748
2023-03-05T00:44:48.545Z,79.13477
2023-03-05T00:45:18.544Z,79.63281
2023-03-05T00:45:48.546Z,79.89063
2023-03-05T00:46:18.579Z,79.93359
2023-03-05T00:46:48.623Z,80.00195
2023-03-05T00:47:18.593Z,79.82422
2023-03-05T00:47:48.551Z,79.59961
2023-03-05T00:48:18.545Z,79.20605
2023-03-05T00:48:48.545Z,79.1709
2023-03-05T00:49:18.562Z,79.23438
2023-03-05T00:49:48.554Z,78.9502
2023-03-05T00:50:18.549Z,78.75
2023-03-05T00:50:48.547Z,78.61719
2023-03-05T00:51:18.547Z,78.41309
2023-03-05T00:51:48.557Z,78.27734
2023-03-05T00:52:18.551Z,78.53223
2023-03-05T00:52:48.553Z,78.44141
2023-03-05T00:53:18.548Z,78.2168
2023-03-05T00:53:48.550Z,78.38379
2023-03-05T00:54:18.549Z,78.3418
2023-03-05T00:54:48.546Z,78.2998
2023-03-05T00:55:18.546Z,78.29102
2023-03-05T00:55:48.546Z,78.30176
2023-03-05T00:56:18.551Z,78.43555
2023-03-05T00:56:48.544Z,78.45703
2023-03-05T00:57:18.553Z,77.96387
2023-03-05T00:57:48.545Z,77.7373
2023-03-05T00:58:18.551Z,77.80176
2023-03-05T00:58:48.549Z,77.51367
2023-03-05T00:59:18.555Z,77.86914
2023-03-05T00:59:48.556Z,78.00684
2023-03-05T01:00:18.552Z,77.90234
2023-03-05T01:00:48.545Z,77.95313
2023-03-05T01:01:18.580Z,77.99512
2023-03-05T01:01:48.599Z,77.80957
2023-03-05T01:02:18.559Z,77.98242
2023-03-05T01:02:48.543Z,78.27246
2023-03-05T01:03:18.545Z,78.18457
2023-03-05T01:03:48.539Z,77.82227
2023-03-05T01:04:18.560Z,78.2168
2023-03-05T01:04:48.596Z,77.88867
2023-03-05T01:05:18.618Z,77.6709
2023-03-05T01:05:48.547Z,77.4668
2023-03-05T01:06:18.565Z,77.40527
2023-03-05T01:06:48.542Z,77.37695
2023-03-05T01:07:18.534Z,77.44043
2023-03-05T01:07:48.532Z,77.54004
2023-03-05T01:08:18.534Z,77.71777
2023-03-05T01:08:48.534Z,77.34375
2023-03-05T01:09:18.532Z,77.67383
2023-03-05T01:09:48.530Z,77.78418
2023-03-05T01:10:18.532Z,77.83594
2023-03-05T01:10:48.531Z,77.87305
2023-03-05T01:11:18.532Z,77.65137
2023-03-05T01:11:48.541Z,77.97363
2023-03-05T01:12:18.546Z,77.89258
2023-03-05T01:12:48.530Z,77.83105
2023-03-05T01:13:18.531Z,77.46289
2023-03-05T01:13:48.526Z,77.1748
2023-03-05T01:14:18.537Z,77.22168
2023-03-05T01:14:48.528Z,76.98828
2023-03-05T01:15:18.531Z,76.98145
2023-03-05T01:15:48.560Z,77.15723
2023-03-05T01:16:18.663Z,77.72266
2023-03-05T01:16:48.531Z,78.11035
2023-03-05T01:17:18.534Z,77.9082
2023-03-05T01:17:48.537Z,77.73828
2023-03-05T01:18:18.525Z,77.46289
2023-03-05T01:18:48.550Z,77.29883
2023-03-05T01:19:18.535Z,77.53613
2023-03-05T01:19:48.533Z,77.60938
2023-03-05T01:20:18.527Z,77.38281
2023-03-05T01:20:48.526Z,77.36523
2023-03-05T01:21:18.530Z,77.49414
2023-03-05T01:21:48.529Z,77.89355
2023-03-05T01:22:18.526Z,78.11035
2023-03-05T01:22:48.523Z,77.98438
2023-03-05T01:23:18.529Z,78.12793
2023-03-05T01:23:48.527Z,78.08594
2023-03-05T01:24:18.521Z,77.85938
2023-03-05T01:24:48.525Z,77.94238
2023-03-05T01:25:18.538Z,78.21973
2023-03-05T01:25:48.529Z,78.89063
2023-03-05T01:26:18.532Z,79.38965
2023-03-05T01:26:48.533Z,79.02832
2023-03-05T01:27:18.525Z,78.62109
2023-03-05T01:27:48.521Z,79.33008
2023-03-05T01:28:18.524Z,79.55957
2023-03-05T01:28:48.530Z,79.93359
2023-03-05T01:29:18.523Z,80
2023-03-05T01:29:48.521Z,79.90039
2023-03-05T01:30:18.522Z,79.95313
2023-03-05T01:30:48.521Z,79.89063
2023-03-05T01:31:18.545Z,79.55469
2023-03-05T01:31:48.607Z,79.41992
2023-03-05T01:32:18.549Z,79.74023
2023-03-05T01:32:48.527Z,79.73926
2023-03-05T01:33:18.528Z,79.74902
2023-03-05T01:33:48.530Z,79.53027
2023-03-05T01:34:18.520Z,79.42188
2023-03-05T01:34:48.520Z,78.94336
2023-03-05T01:35:18.566Z,78.875
2023-03-05T01:35:48.563Z,79.12598
2023-03-05T01:36:18.525Z,79.50879
2023-03-05T01:36:48.522Z,79.56445
2023-03-05T01:37:18.522Z,79.66602
2023-03-05T01:37:48.539Z,79.49902
2023-03-05T01:38:18.529Z,79.55762
2023-03-05T01:38:48.522Z,79.56641
2023-03-05T01:39:18.520Z,79.81152
2023-03-05T01:39:48.530Z,79.90625
2023-03-05T01:40:18.524Z,79.70898
2023-03-05T01:40:48.524Z,79.55469
2023-03-05T01:41:18.523Z,79.39453
2023-03-05T01:41:48.525Z,79.41699
2023-03-05T01:42:18.524Z,79.42383
2023-03-05T01:42:48.522Z,79.48438
2023-03-05T01:43:18.525Z,79.63281
2023-03-05T01:43:48.539Z,79.43945
2023-03-05T01:44:18.524Z,79.45117
2023-03-05T01:44:48.521Z,79.62891
2023-03-05T01:45:18.538Z,79.39746
2023-03-05T01:45:48.553Z,79.55078
2023-03-05T01:46:18.526Z,79.69336
2023-03-05T01:46:48.532Z,80.0957
2023-03-05T01:47:18.533Z,79.90234
2023-03-05T01:47:48.522Z,79.80664
2023-03-05T01:48:18.525Z,79.68164
2023-03-05T01:48:48.526Z,79.71289
2023-03-05T01:49:18.533Z,79.57715
2023-03-05T01:49:48.525Z,79.51758
2023-03-05T01:50:18.535Z,78.90527
2023-03-05T01:50:48.527Z,78.63184
2023-03-05T01:51:18.522Z,78.62793
2023-03-05T01:51:48.526Z,77.89063
2023-03-05T01:52:18.524Z,78.0332
2023-03-05T01:52:48.525Z,77.91992
2023-03-05T01:53:18.534Z,77.68848
2023-03-05T01:53:48.524Z,77.86133
2023-03-05T01:54:18.528Z,78
2023-03-05T01:54:48.522Z,77.85938
2023-03-05T01:55:18.538Z,77.76465
2023-03-05T01:55:48.533Z,77.82422
2023-03-05T01:56:18.537Z,78.12109
2023-03-05T01:56:48.524Z,78.28613
2023-03-05T01:57:18.526Z,78.38379
2023-03-05T01:57:48.538Z,78.53418
2023-03-05T01:58:18.524Z,78.49414
2023-03-05T01:58:48.530Z,78.05078
2023-03-05T01:59:18.536Z,77.9375
2023-03-05T01:59:48.530Z,78.15332
2023-03-05T02:00:18.523Z,78.23926
2023-03-05T02:00:48.585Z,78.37402
2023-03-05T02:01:18.561Z,78.33887
2023-03-05T02:01:48.520Z,77.92773
2023-03-05T02:02:18.525Z,77.64355
2023-03-05T02:02:48.522Z,77.39063
2023-03-05T02:03:18.534Z,77.2666
2023-03-05T02:03:48.603Z,77.66016
2023-03-05T02:04:18.525Z,77.17676
2023-03-05T02:04:48.529Z,77.2627
2023-03-05T02:05:18.532Z,77.26465
2023-03-05T02:05:48.520Z,77.29785
2023-03-05T02:06:18.519Z,77.06348
2023-03-05T02:06:48.549Z,76.84863
2023-03-05T02:07:18.548Z,77.02148
2023-03-05T02:07:48.539Z,76.91699
2023-03-05T02:08:18.530Z,76.95215
2023-03-05T02:08:48.519Z,76.78906
2023-03-05T02:09:18.520Z,76.70703
2023-03-05T02:09:48.534Z,76.56543
2023-03-05T02:10:18.523Z,76.42383
2023-03-05T02:10:48.524Z,76.31543
2023-03-05T02:11:18.524Z,76.20605
2023-03-05T02:11:48.521Z,76.46094
2023-03-05T02:12:18.526Z,76.86035
2023-03-05T02:12:48.522Z,76.87695
2023-03-05T02:13:18.522Z,76.64453
2023-03-05T02:13:48.526Z,77.02539
2023-03-05T02:14:18.529Z,76.83496
2023-03-05T02:14:48.525Z,76.89551
2023-03-05T02:15:18.527Z,76.8125
2023-03-05T02:15:48.522Z,76.77051
2023-03-05T02:16:18.600Z,77.00293
2023-03-05T02:16:48.575Z,77.31836
2023-03-05T02:17:18.523Z,77.37988
2023-03-05T02:17:48.526Z,77.32715
2023-03-05T02:18:18.525Z,77.00488
2023-03-05T02:18:48.530Z,76.75195
2023-03-05T02:19:18.533Z,76.54688
2023-03-05T02:19:48.543Z,76.4873
2023-03-05T02:20:18.538Z,76.30762
2023-03-05T02:20:48.527Z,76.20508
2023-03-05T02:21:18.618Z,76.82324
2023-03-05T02:21:48.531Z,77.03418
2023-03-05T02:22:18.530Z,76.93066
2023-03-05T02:22:48.527Z,76.76172
2023-03-05T02:23:18.538Z,76.85449
2023-03-05T02:23:48.528Z,77.08301
2023-03-05T02:24:18.525Z,77.24902
2023-03-05T02:24:48.536Z,77.2666
2023-03-05T02:25:18.546Z,77.31543
2023-03-05T02:25:48.524Z,77.22852
2023-03-05T02:26:18.615Z,77.37109
2023-03-05T02:26:48.526Z,77.31738
2023-03-05T02:27:18.525Z,77.12109
2023-03-05T02:27:48.527Z,77.17578
2023-03-05T02:28:18.529Z,77.02051
2023-03-05T02:28:48.525Z,76.93457
2023-03-05T02:29:18.552Z,77.18066
2023-03-05T02:29:48.536Z,77.36426
2023-03-05T02:30:18.530Z,77.34473
2023-03-05T02:30:48.527Z,76.97168
2023-03-05T02:31:18.575Z,76.63477
2023-03-05T02:31:48.596Z,76.16504
2023-03-05T02:32:18.588Z,76.18066
2023-03-05T02:32:48.609Z,76.07031
2023-03-05T02:33:18.527Z,75.84668
2023-03-05T02:33:48.539Z,76.25781
2023-03-05T02:34:18.537Z,76.64648
2023-03-05T02:34:48.549Z,76.69531
2023-03-05T02:35:18.668Z,76.71191
2023-03-05T02:35:48.582Z,76.56641
2023-03-05T02:36:18.532Z,76.73047
2023-03-05T02:36:48.526Z,76.56543
2023-03-05T02:37:18.530Z,76.54395
2023-03-05T02:37:48.531Z,76.5752
2023-03-05T02:38:18.529Z,76.40234
2023-03-05T02:38:48.525Z,76.53027
2023-03-05T02:39:18.536Z,76.6875
2023-03-05T02:39:48.533Z,76.46973
2023-03-05T02:40:18.532Z,76.4502
2023-03-05T02:40:48.532Z,76.42773
2023-03-05T02:41:18.533Z,76.31348
2023-03-05T02:41:48.525Z,76.0752
2023-03-05T02:42:18.557Z,76.76758
2023-03-05T02:42:48.529Z,76.64063
2023-03-05T02:43:18.528Z,76.55859
2023-03-05T02:43:48.534Z,76.57617
2023-03-05T02:44:18.526Z,76.42578
2023-03-05T02:44:48.543Z,75.88965
2023-03-05T02:45:18.546Z,76.01758
2023-03-05T02:45:48.611Z,76.19531
2023-03-05T02:46:18.531Z,76.06934
2023-03-05T02:46:48.528Z,76.04102
2023-03-05T02:47:18.528Z,76.37012
2023-03-05T02:47:48.534Z,76.44824
2023-03-05T02:48:18.535Z,76.39551
2023-03-05T02:48:48.530Z,76.09961
2023-03-05T02:49:18.536Z,76.17285
2023-03-05T02:49:48.535Z,76.14453
2023-03-05T02:50:18.527Z,75.97656
2023-03-05T02:50:48.533Z,76.10254
2023-03-05T02:51:18.535Z,76.16504
2023-03-05T02:51:48.537Z,75.91211
2023-03-05T02:52:18.538Z,75.76758
2023-03-05T02:52:48.537Z,75.75098
2023-03-05T02:53:18.533Z,75.62012
2023-03-05T02:53:48.535Z,75.31445
2023-03-05T02:54:18.529Z,75.27734
2023-03-05T02:54:48.543Z,75.23535
2023-03-05T02:55:18.535Z,75.4209
2023-03-05T02:55:48.538Z,75.50098
2023-03-05T02:56:18.528Z,75.75781
2023-03-05T02:56:48.529Z,75.45801
2023-03-05T02:57:18.529Z,75.33008
2023-03-05T02:57:48.530Z,75.58887
2023-03-05T02:58:18.528Z,75.59375
2023-03-05T02:58:48.529Z,75.9541
2023-03-05T02:59:18.532Z,75.91406
2023-03-05T02:59:48.559Z,76.06738
2023-03-05T03:00:18.531Z,76.19043
2023-03-05T03:00:48.530Z,75.83887
2023-03-05T03:01:18.607Z,75.95605
2023-03-05T03:01:48.530Z,75.76074
2023-03-05T03:02:18.537Z,75.55078
2023-03-05T03:02:48.590Z,75.75684
2023-03-05T03:03:18.583Z,75.78125
2023-03-05T03:03:48.542Z,75.33984
2023-03-05T03:04:18.530Z,75.34961
2023-03-05T03:04:48.531Z,75.3623
2023-03-05T03:05:18.543Z,75.58008
2023-03-05T03:05:48.530Z,75.08398
2023-03-05T03:06:18.532Z,75.05957
2023-03-05T03:06:48.536Z,74.88965
2023-03-05T03:07:18.533Z,75.00684
2023-03-05T03:07:48.531Z,74.79199
2023-03-05T03:08:18.532Z,74.90332
2023-03-05T03:08:48.531Z,75.2041
2023-03-05T03:09:18.531Z,74.93555
2023-03-05T03:09:48.541Z,74.81055
2023-03-05T03:10:18.546Z,74.93652
2023-03-05T03:10:48.529Z,75.19043
2023-03-05T03:11:18.534Z,75.23926
2023-03-05T03:11:48.567Z,75.1123
2023-03-05T03:12:18.540Z,75.55371
2023-03-05T03:12:48.540Z,75.98926
2023-03-05T03:13:18.533Z,76.17285
2023-03-05T03:13:48.534Z,76.50098
2023-03-05T03:14:18.532Z,76.18262
2023-03-05T03:14:48.539Z,76.21777
2023-03-05T03:15:18.536Z,76.26855
2023-03-05T03:15:48.536Z,76.07129
2023-03-05T03:16:18.651Z,75.9043
2023-03-05T03:16:48.625Z,76.1123
2023-03-05T03:17:18.538Z,75.69824
2023-03-05T03:17:48.535Z,75.7627
2023-03-05T03:18:18.571Z,75.79785
2023-03-05T03:18:48.535Z,75.67676
2023-03-05T03:19:18.535Z,75.6123
2023-03-05T03:19:48.529Z,76.21387
2023-03-05T03:20:18.530Z,76.18848
2023-03-05T03:20:48.531Z,76.00488
2023-03-05T03:21:18.534Z,76.10449
2023-03-05T03:21:48.534Z,76.41309
2023-03-05T03:22:18.539Z,76.35254
2023-03-05T03:22:48.533Z,75.96289
2023-03-05T03:23:18.539Z,75.83203
2023-03-05T03:23:48.534Z,76.03125
2023-03-05T03:24:18.532Z,76.01367
2023-03-05T03:24:48.541Z,75.99805
2023-03-05T03:25:18.532Z,76.45898
2023-03-05T03:25:48.533Z,76.57422
2023-03-05T03:26:18.532Z,76.14648
2023-03-05T03:26:48.534Z,76.13281
2023-03-05T03:27:18.536Z,76.60938
2023-03-05T03:27:48.539Z,76.42578
2023-03-05T03:28:18.555Z,75.95605
2023-03-05T03:28:48.537Z,76.07813
2023-03-05T03:29:18.544Z,76.40234
2023-03-05T03:29:48.545Z,76.5332
2023-03-05T03:30:18.537Z,76.73242
2023-03-05T03:30:48.555Z,76.62793
2023-03-05T03:31:18.604Z,76.65625
2023-03-05T03:31:48.539Z,76.91797
2023-03-05T03:32:18.586Z,77.38672
2023-03-05T03:32:48.533Z,77.27051
2023-03-05T03:33:18.534Z,77.0957
2023-03-05T03:33:48.544Z,76.88281
2023-03-05T03:34:18.544Z,76.95898
2023-03-05T03:34:48.544Z,77.27148
2023-03-05T03:35:18.553Z,77.52246
2023-03-05T03:35:48.614Z,77.33105
2023-03-05T03:36:18.535Z,77.43359
2023-03-05T03:36:48.540Z,77.56836
2023-03-05T03:37:18.535Z,77.48047
2023-03-05T03:37:48.538Z,77.5293
2023-03-05T03:38:18.544Z,77.51074
2023-03-05T03:38:48.543Z,77.51172
2023-03-05T03:39:18.539Z,77.51758
2023-03-05T03:39:48.540Z,77.06152
2023-03-05T03:40:18.538Z,77.26465
2023-03-05T03:40:48.542Z,77.29395
2023-03-05T03:41:18.544Z,77.63281
2023-03-05T03:41:48.541Z,77.44922
2023-03-05T03:42:18.539Z,77.22363
2023-03-05T03:42:48.539Z,77.30273
2023-03-05T03:43:18.537Z,77.42773
2023-03-05T03:43:48.557Z,77.40723
2023-03-05T03:44:18.553Z,77.87793
2023-03-05T03:44:48.548Z,78.1748
2023-03-05T03:45:18.538Z,78.00391
2023-03-05T03:45:48.585Z,78.09668
2023-03-05T03:46:18.594Z,78.14551
2023-03-05T03:46:48.559Z,78.28809
2023-03-05T03:47:18.546Z,78.16113
2023-03-05T03:47:48.536Z,78.01465
2023-03-05T03:48:18.557Z,77.77344
2023-03-05T03:48:48.536Z,77.50488
2023-03-05T03:49:18.538Z,77.43945
2023-03-05T03:49:48.538Z,77.39258
2023-03-05T03:50:18.543Z,77.6543
2023-03-05T03:50:48.538Z,77.76758
2023-03-05T03:51:18.552Z,78.05762
2023-03-05T03:51:48.551Z,78.08887
2023-03-05T03:52:18.540Z,78.14453
2023-03-05T03:52:48.539Z,77.66113
2023-03-05T03:53:18.543Z,77.67188
2023-03-05T03:53:48.549Z,78.21289
2023-03-05T03:54:18.553Z,78.14453
2023-03-05T03:54:48.537Z,78.00293
2023-03-05T03:55:18.541Z,78.08887
2023-03-05T03:55:48.541Z,78.0332
2023-03-05T03:56:18.539Z,77.94238
2023-03-05T03:56:48.537Z,77.89844
2023-03-05T03:57:18.541Z,77.86328
2023-03-05T03:57:48.572Z,78.65723
2023-03-05T03:58:18.548Z,78.6084
2023-03-05T03:58:48.548Z,78.46191
2023-03-05T03:59:18.540Z,78.61133
2023-03-05T03:59:48.541Z,79.33008
2023-03-05T04:00:18.548Z,79.4209
2023-03-05T04:00:48.544Z,79.26172
2023-03-05T04:01:18.560Z,79.2207
2023-03-05T04:01:48.537Z,79.23633
2023-03-05T04:02:18.631Z,79.59473
2023-03-05T04:02:48.620Z,79.44336
2023-03-05T04:03:18.544Z,78.88184
2023-03-05T04:03:48.539Z,78.6416
2023-03-05T04:04:18.646Z,78.5
2023-03-05T04:04:48.543Z,78.63477
2023-03-05T04:05:18.542Z,78.92188
2023-03-05T04:05:48.542Z,78.8623
2023-03-05T04:06:18.538Z,78.7002
2023-03-05T04:06:48.538Z,79.07227
2023-03-05T04:07:18.545Z,78.80566
2023-03-05T04:07:48.539Z,79.03418
2023-03-05T04:08:18.545Z,79.43652
2023-03-05T04:08:48.544Z,79.43164
2023-03-05T04:09:18.541Z,79.62305
2023-03-05T04:09:48.553Z,80.01172
2023-03-05T04:10:18.545Z,79.89258
2023-03-05T04:10:48.538Z,79.81055
2023-03-05T04:11:18.540Z,79.59277
2023-03-05T04:11:48.545Z,79.21875
2023-03-05T04:12:18.541Z,78.73926
2023-03-05T04:12:48.554Z,78.53809
2023-03-05T04:13:18.542Z,78.3252
2023-03-05T04:13:48.547Z,78.27344
2023-03-05T04:14:18.540Z,77.97949
2023-03-05T04:14:48.554Z,78.2334
2023-03-05T04:15:18.546Z,78.35156
2023-03-05T04:15:48.621Z,78.47559
2023-03-05T04:16:18.620Z,78.39355
2023-03-05T04:16:48.556Z,78.69043
2023-03-05T04:17:18.545Z,78.95898
2023-03-05T04:17:48.541Z,78.76465
2023-03-05T04:18:18.559Z,78.65723
2023-03-05T04:18:48.539Z,78.52637
2023-03-05T04:19:18.540Z,78.20117
2023-03-05T04:19:48.562Z,78.06055
2023-03-05T04:20:18.542Z,77.95898
2023-03-05T04:20:48.562Z,78.08398
2023-03-05T04:21:18.544Z,78.20801
2023-03-05T04:21:48.546Z,78.44238
2023-03-05T04:22:18.556Z,78.40234
2023-03-05T04:22:48.553Z,78.13184
2023-03-05T04:23:18.543Z,78.18945
2023-03-05T04:23:48.542Z,77.95898
2023-03-05T04:24:18.547Z,78.05176
2023-03-05T04:24:48.543Z,78.46289
2023-03-05T04:25:18.559Z,78.72656
2023-03-05T04:25:48.540Z,78.87988
2023-03-05T04:26:18.545Z,78.6709
2023-03-05T04:26:48.546Z,78.57715
2023-03-05T04:27:18.543Z,78.25195
2023-03-05T04:27:48.551Z,77.89648
2023-03-05T04:28:18.542Z,77.82617
2023-03-05T04:28:48.544Z,77.75488
2023-03-05T04:29:18.544Z,77.75977
2023-03-05T04:29:48.559Z,77.61133
2023-03-05T04:30:18.543Z,77.91016
2023-03-05T04:30:48.602Z,78.08398
2023-03-05T04:31:18.559Z,77.91992
2023-03-05T04:31:48.544Z,77.7334
2023-03-05T04:32:18.572Z,77.74707
2023-03-05T04:32:48.540Z,77.91504
2023-03-05T04:33:18.544Z,78.4248
2023-03-05T04:33:48.536Z,78.63281
2023-03-05T04:34:18.538Z,78.31836
2023-03-05T04:34:48.540Z,79.24316
2023-03-05T04:35:18.612Z,79.54297
2023-03-05T04:35:48.723Z,79.8877
2023-03-05T04:36:18.539Z,79.90039
2023-03-05T04:36:48.536Z,79.8291
2023-03-05T04:37:18.538Z,79.46484
2023-03-05T04:37:48.546Z,78.45996
2023-03-05T04:38:18.545Z,78.2959
2023-03-05T04:38:48.535Z,78.25391
2023-03-05T04:39:18.540Z,78.23828
2023-03-05T04:39:48.539Z,77.93066
2023-03-05T04:40:18.537Z,77.81348
2023-03-05T04:40:48.537Z,77.94238
2023-03-05T04:41:18.534Z,78.11426
2023-03-05T04:41:48.542Z,77.90625
2023-03-05T04:42:18.544Z,77.97754
2023-03-05T04:42:48.542Z,77.94824
2023-03-05T04:43:18.543Z,77.89063
2023-03-05T04:43:48.536Z,77.7998
2023-03-05T04:44:18.542Z,77.9248
2023-03-05T04:44:48.556Z,77.79199
2023-03-05T04:45:18.534Z,77.98926
2023-03-05T04:45:48.535Z,78.06152
2023-03-05T04:46:18.543Z,77.79102
2023-03-05T04:46:48.642Z,77.80762
2023-03-05T04:47:18.535Z,77.82715
2023-03-05T04:47:48.535Z,77.9043
2023-03-05T04:48:18.536Z,78.46094
2023-03-05T04:48:48.538Z,78.11914
2023-03-05T04:49:18.546Z,78.05762
2023-03-05T04:49:48.540Z,78.20313
2023-03-05T04:50:18.547Z,77.89746
2023-03-05T04:50:48.537Z,77.86621
2023-03-05T04:51:18.541Z,78.27051
2023-03-05T04:51:48.574Z,78.38281
2023-03-05T04:52:18.566Z,78.14551
2023-03-05T04:52:48.536Z,78.02148
2023-03-05T04:53:18.541Z,77.86914
2023-03-05T04:53:48.545Z,77.55859
2023-03-05T04:54:18.538Z,77.6543
2023-03-05T04:54:48.535Z,77.86035
2023-03-05T04:55:18.536Z,78.07129
2023-03-05T04:55:48.536Z,77.66504
2023-03-05T04:56:18.580Z,78.15918
2023-03-05T04:56:48.536Z,78.39648
2023-03-05T04:57:18.550Z,78.68262
2023-03-05T04:57:48.538Z,78.66406
2023-03-05T04:58:18.535Z,78.62012
2023-03-05T04:58:48.542Z,78.68457
2023-03-05T04:59:18.537Z,78.32324
2023-03-05T04:59:48.534Z,78.66699
2023-03-05T05:00:18.535Z,78.37402
2023-03-05T05:00:48.544Z,78.02637
2023-03-05T05:01:18.550Z,77.96191
2023-03-05T05:01:48.589Z,78.48145
2023-03-05T05:02:18.539Z,78.55176
2023-03-05T05:02:48.577Z,78.45215
2023-03-05T05:03:18.654Z,78.34375
2023-03-05T05:03:48.537Z,78.01758
2023-03-05T05:04:18.537Z,77.93457
2023-03-05T05:04:48.534Z,78.53906
2023-03-05T05:05:18.566Z,78.63672
2023-03-05T05:05:48.540Z,78.375
2023-03-05T05:06:18.542Z,78.29297
2023-03-05T05:06:48.540Z,78.57227
2023-03-05T05:07:18.537Z,78.83398
2023-03-05T05:07:48.558Z,78.69434
2023-03-05T05:08:18.544Z,78.35352
2023-03-05T05:08:48.536Z,78.7998
2023-03-05T05:09:18.538Z,78.56152
2023-03-05T05:09:48.538Z,78.71387
2023-03-05T05:10:18.542Z,78.7959
2023-03-05T05:10:48.558Z,78.72266
2023-03-05T05:11:18.577Z,78.77539
2023-03-05T05:11:48.544Z,78.93555
2023-03-05T05:12:18.537Z,79.16211
2023-03-05T05:12:48.539Z,79.08008
2023-03-05T05:13:18.546Z,79.29883
2023-03-05T05:13:48.545Z,78.90723
2023-03-05T05:14:18.548Z,78.51465
2023-03-05T05:14:48.536Z,78.25781
2023-03-05T05:15:18.546Z,78.27734
2023-03-05T05:15:48.611Z,78.37109
2023-03-05T05:16:18.574Z,78.85645
2023-03-05T05:16:48.541Z,78.55762
2023-03-05T05:17:18.536Z,78.09668
2023-03-05T05:17:48.541Z,77.81738
2023-03-05T05:18:18.582Z,78.62988
2023-03-05T05:18:48.537Z,79.25879
2023-03-05T05:19:18.621Z,79.36133
2023-03-05T05:19:48.540Z,79.64648
2023-03-05T05:20:18.536Z,79.30371
2023-03-05T05:20:48.540Z,79.28125
2023-03-05T05:21:18.549Z,79.57813
2023-03-05T05:21:48.538Z,79.54004
2023-03-05T05:22:18.537Z,79.13281
2023-03-05T05:22:48.573Z,78.51758
2023-03-05T05:23:18.536Z,78.88086
2023-03-05T05:23:48.548Z,79.74023
2023-03-05T05:24:18.538Z,79.92578
2023-03-05T05:24:48.545Z,79.89258
2023-03-05T05:25:18.542Z,79.49219
2023-03-05T05:25:48.544Z,79.43652
2023-03-05T05:26:18.548Z,79.67773
2023-03-05T05:26:48.540Z,79.74902
2023-03-05T05:27:18.540Z,79.34277
2023-03-05T05:27:48.546Z,79.05371
2023-03-05T05:28:18.542Z,79.02441
2023-03-05T05:28:48.552Z,78.99414
2023-03-05T05:29:18.543Z,78.88281
2023-03-05T05:29:48.537Z,79.40137
2023-03-05T05:30:18.537Z,79.22559
2023-03-05T05:30:48.541Z,79.33008
2023-03-05T05:31:18.655Z,79.47168
2023-03-05T05:31:48.589Z,79.81934
2023-03-05T05:32:18.577Z,80.14063
2023-03-05T05:32:48.540Z,80.02637
2023-03-05T05:33:18.542Z,79.96387
2023-03-05T05:33:49.930Z,80.16113
2023-03-05T05:34:18.542Z,79.91309
2023-03-05T05:34:48.547Z,80.10059
2023-03-05T05:35:18.625Z,80.11719
2023-03-05T05:35:48.618Z,80.24316
2023-03-05T05:36:18.547Z,80.18262
2023-03-05T05:36:48.542Z,80.10156
2023-03-05T05:37:18.543Z,79.46777
2023-03-05T05:37:48.539Z,79.11133
2023-03-05T05:38:18.578Z,79.43457
2023-03-05T05:38:48.547Z,79.56738
2023-03-05T05:39:20.419Z,79.50098
2023-03-05T05:39:48.544Z,79.56934
2023-03-05T05:40:18.550Z,79.87695
2023-03-05T05:40:48.545Z,79.57813
2023-03-05T05:41:18.552Z,79.42285
2023-03-05T05:41:48.553Z,79.39648
2023-03-05T05:42:18.549Z,78.95801
2023-03-05T05:42:48.556Z,79.07324
2023-03-05T05:43:18.544Z,79.2373
2023-03-05T05:43:48.566Z,79.34961
2023-03-05T05:44:18.547Z,78.88965
2023-03-05T05:44:48.546Z,79.46582
2023-03-05T05:45:18.585Z,79.25293
2023-03-05T05:45:48.619Z,78.91016
2023-03-05T05:46:18.665Z,79.02637
2023-03-05T05:46:48.586Z,78.90527
2023-03-05T05:47:18.551Z,78.83203
2023-03-05T05:47:48.551Z,78.5332
2023-03-05T05:48:18.560Z,78.65527
2023-03-05T05:48:48.554Z,79.09082
2023-03-05T05:49:18.551Z,79.10059
2023-03-05T05:49:48.554Z,78.9873
2023-03-05T05:50:18.554Z,79.15039
2023-03-05T05:50:48.555Z,79.96191
2023-03-05T05:51:18.547Z,80.02051
2023-03-05T05:51:48.550Z,80.04297
2023-03-05T05:52:18.552Z,79.93848
2023-03-05T05:52:48.549Z,79.92383
2023-03-05T05:53:18.561Z,80.42676
2023-03-05T05:53:48.552Z,80.06152